Time;durP1;ratioP1;P1;durP2;ratioP2;P2;SDS_P1;SDS_P2;PMS_P1;PMS_P2;Temp;Humidity;BMP_temperature;BMP_pressure;BME280_temperature;BME280_humidity;BME280_pressure;Samples;Min_cycle;Max_cycle;Signal;HPM_P1;HPM_P2
2021/03/03 00:02:19;;;;;;;23.23;15.73;;;10.10;64.40;;;;;;5097445;28;20435;-71
2021/03/03 00:04:46;;;;;;;20.60;15.33;;;10.10;64.70;;;;;;5097005;28;20483;-72
2021/03/03 00:07:13;;;;;;;21.73;14.90;;;10.10;65.10;;;;;;5097212;28;20431;-72
2021/03/03 00:09:39;;;;;;;19.30;14.80;;;10.10;65.00;;;;;;5097195;28;20449;-71
2021/03/03 00:12:08;;;;;;;22.80;14.60;;;10.10;65.10;;;;;;5097094;28;20500;-71
2021/03/03 00:14:34;;;;;;;20.07;14.27;;;10.10;65.30;;;;;;5097166;28;20457;-71
2021/03/03 00:17:00;;;;;;;22.67;14.30;;;10.10;65.20;;;;;;5097024;28;20472;-72
2021/03/03 00:19:26;;;;;;;20.33;14.67;;;10.10;65.90;;;;;;5096957;28;20443;-71
2021/03/03 00:21:53;;;;;;;20.50;15.67;;;10.00;65.20;;;;;;5096873;28;20501;-71
2021/03/03 00:24:19;;;;;;;23.90;13.90;;;10.00;65.20;;;;;;5096861;28;20468;-71
2021/03/03 00:26:45;;;;;;;19.40;13.60;;;10.00;65.40;;;;;;5096830;28;20460;-72
2021/03/03 00:29:12;;;;;;;23.40;15.03;;;10.00;65.60;;;;;;5096742;28;20967;-72
2021/03/03 00:31:38;;;;;;;18.73;14.73;;;10.00;65.80;;;;;;5096440;28;20937;-71
2021/03/03 00:34:05;;;;;;;21.80;14.00;;;9.90;67.60;;;;;;5096808;28;20447;-71
2021/03/03 00:36:31;;;;;;;20.90;14.53;;;10.00;66.60;;;;;;5096545;28;20460;-72
2021/03/03 00:38:57;;;;;;;21.60;15.80;;;9.90;67.90;;;;;;5096341;28;20945;-71
2021/03/03 00:41:23;;;;;;;22.30;15.50;;;10.00;66.40;;;;;;5096593;28;20444;-71
2021/03/03 00:43:49;;;;;;;22.93;14.90;;;9.90;67.70;;;;;;5096446;28;20887;-71
2021/03/03 00:46:16;;;;;;;26.30;16.07;;;9.90;67.60;;;;;;5096413;28;20463;-72
2021/03/03 00:48:43;;;;;;;18.80;15.30;;;9.90;67.10;;;;;;5096422;28;20539;-71
2021/03/03 00:51:09;;;;;;;20.80;14.53;;;9.80;66.60;;;;;;5096281;28;20446;-71
2021/03/03 00:53:35;;;;;;;20.90;14.63;;;9.80;66.40;;;;;;5096298;28;20442;-71
2021/03/03 00:56:01;;;;;;;17.80;14.10;;;9.80;66.50;;;;;;5096099;28;20460;-72
2021/03/03 00:58:27;;;;;;;23.97;15.30;;;9.70;66.50;;;;;;5096191;28;20448;-71
2021/03/03 01:00:54;;;;;;;22.30;16.13;;;9.60;66.40;;;;;;5095810;28;20899;-71
2021/03/03 01:03:21;;;;;;;24.27;16.00;;;9.60;66.50;;;;;;5095184;28;20475;-71
2021/03/03 01:05:47;;;;;;;20.00;13.93;;;9.50;66.50;;;;;;5095794;28;20475;-71
2021/03/03 01:08:13;;;;;;;21.50;14.00;;;9.50;66.40;;;;;;5096042;28;20439;-71
2021/03/03 01:10:39;;;;;;;19.80;13.13;;;9.40;66.30;;;;;;5095901;28;20444;-71
2021/03/03 01:13:06;;;;;;;24.13;13.37;;;9.40;66.40;;;;;;5095776;28;20485;-71
2021/03/03 01:15:32;;;;;;;17.77;13.40;;;9.30;66.50;;;;;;5095811;28;20463;-71
2021/03/03 01:18:00;;;;;;;24.13;14.63;;;9.30;66.90;;;;;;5095490;28;20440;-71
2021/03/03 01:20:28;;;;;;;16.10;11.80;;;9.30;67.20;;;;;;5096130;28;20787;-71
2021/03/03 01:22:54;;;;;;;24.43;13.50;;;9.20;67.10;;;;;;5095973;28;20495;-71
2021/03/03 01:25:21;;;;;;;21.87;13.27;;;9.20;66.90;;;;;;5095814;28;20468;-71
2021/03/03 01:27:47;;;;;;;18.73;13.93;;;9.10;66.90;;;;;;5095751;28;20867;-71
2021/03/03 01:30:14;;;;;;;24.20;13.97;;;9.10;67.10;;;;;;5095612;28;20489;-71
2021/03/03 01:32:41;;;;;;;19.30;12.53;;;9.00;67.00;;;;;;5095507;28;20448;-71
2021/03/03 01:35:08;;;;;;;21.53;13.33;;;9.00;67.10;;;;;;5095297;28;20970;-71
2021/03/03 01:37:35;;;;;;;19.93;13.50;;;8.90;67.20;;;;;;5095441;28;20445;-71
2021/03/03 01:40:02;;;;;;;24.43;12.87;;;8.90;67.20;;;;;;5095352;28;20444;-71
2021/03/03 01:42:28;;;;;;;16.40;12.07;;;8.80;67.00;;;;;;5095356;28;20444;-71
2021/03/03 01:44:54;;;;;;;19.60;13.30;;;8.80;67.20;;;;;;5094816;28;20845;-72
2021/03/03 01:47:20;;;;;;;17.87;12.20;;;8.80;67.60;;;;;;5095205;28;20447;-71
2021/03/03 01:49:47;;;;;;;21.67;13.23;;;8.80;68.10;;;;;;5095170;28;20447;-71
2021/03/03 01:52:14;;;;;;;17.47;13.13;;;8.80;68.50;;;;;;5095161;28;20439;-71
2021/03/03 01:54:41;;;;;;;23.20;14.37;;;8.70;68.60;;;;;;5094936;28;20979;-72
2021/03/03 01:57:07;;;;;;;21.60;14.13;;;8.70;68.80;;;;;;5095082;28;20825;-71
2021/03/03 01:59:33;;;;;;;21.97;13.50;;;8.70;69.70;;;;;;5095002;28;20443;-71
2021/03/03 02:02:00;;;;;;;22.20;13.30;;;8.70;69.00;;;;;;5094601;28;20823;-71
2021/03/03 02:04:26;;;;;;;23.30;14.90;;;8.70;69.10;;;;;;5094585;28;21041;-71
2021/03/03 02:06:59;;;;;;;21.53;13.40;;;8.60;68.70;;;;;;5094767;28;20481;-71
2021/03/03 02:09:32;;;;;;;17.50;13.57;;;8.60;68.90;;;;;;5094904;28;20428;-71
2021/03/03 02:12:04;;;;;;;21.27;12.57;;;8.50;69.00;;;;;;5094806;28;20485;-71
2021/03/03 02:14:33;;;;;;;16.53;13.00;;;8.50;69.20;;;;;;5094489;28;20420;-71
2021/03/03 02:17:01;;;;;;;18.77;11.60;;;8.50;69.30;;;;;;5094283;28;20468;-71
2021/03/03 02:19:31;;;;;;;19.47;12.60;;;8.40;69.30;;;;;;5094299;28;20447;-71
2021/03/03 02:22:07;;;;;;;20.87;13.57;;;8.40;69.30;;;;;;5094519;28;20450;-71
2021/03/03 02:24:42;;;;;;;17.40;12.30;;;8.40;69.40;;;;;;5094517;28;20463;-71
2021/03/03 02:27:10;;;;;;;20.27;13.77;;;8.40;69.50;;;;;;5094542;28;20458;-71
2021/03/03 02:29:38;;;;;;;23.63;13.03;;;8.40;69.50;;;;;;5094418;28;20448;-71
2021/03/03 02:32:05;;;;;;;19.87;12.90;;;8.30;69.50;;;;;;5094343;28;20447;-71
2021/03/03 02:34:32;;;;;;;16.07;12.80;;;8.30;69.60;;;;;;5094365;28;20440;-71
2021/03/03 02:36:59;;;;;;;17.97;12.10;;;8.30;69.70;;;;;;5094263;28;20459;-71
2021/03/03 02:39:27;;;;;;;19.90;12.70;;;8.30;69.80;;;;;;5093954;28;20857;-71
2021/03/03 02:41:55;;;;;;;19.50;12.53;;;8.30;69.80;;;;;;5094303;28;20443;-71
2021/03/03 02:44:23;;;;;;;19.80;12.20;;;8.20;69.80;;;;;;5093810;28;20479;-71
2021/03/03 02:46:49;;;;;;;20.87;13.67;;;8.20;69.80;;;;;;5094146;28;20467;-71
2021/03/03 02:49:17;;;;;;;20.83;13.10;;;8.20;70.10;;;;;;5094076;28;20444;-71
2021/03/03 02:51:44;;;;;;;19.97;13.00;;;8.20;70.30;;;;;;5094093;28;20450;-71
2021/03/03 02:54:11;;;;;;;21.70;13.83;;;8.10;70.40;;;;;;5093989;28;20474;-71
2021/03/03 02:56:37;;;;;;;18.00;11.47;;;8.10;70.30;;;;;;5093856;28;20471;-71
2021/03/03 02:59:11;;;;;;;17.80;11.67;;;8.10;70.50;;;;;;5093933;28;20436;-71
2021/03/03 03:01:40;;;;;;;16.53;12.17;;;8.00;70.50;;;;;;5093646;28;20482;-71
2021/03/03 03:04:07;;;;;;;13.97;11.10;;;8.00;70.60;;;;;;5093498;28;21099;-71
2021/03/03 03:06:38;;;;;;;16.30;10.80;;;7.90;70.70;;;;;;5093631;28;20467;-71
2021/03/03 03:09:08;;;;;;;16.00;10.63;;;7.90;70.80;;;;;;5093568;28;20786;-71
2021/03/03 03:11:38;;;;;;;14.17;10.03;;;7.90;71.00;;;;;;5093750;28;20436;-71
2021/03/03 03:14:07;;;;;;;14.23;11.10;;;7.90;71.30;;;;;;5093400;28;20929;-71
2021/03/03 03:16:35;;;;;;;14.53;10.37;;;7.90;71.50;;;;;;5093691;28;20456;-71
2021/03/03 03:19:06;;;;;;;17.87;12.10;;;7.80;71.50;;;;;;5093688;28;20435;-71
2021/03/03 03:21:38;;;;;;;17.00;10.77;;;7.80;71.30;;;;;;5093714;28;20431;-71
2021/03/03 03:24:06;;;;;;;15.93;10.60;;;7.80;71.60;;;;;;5093309;28;20460;-71
2021/03/03 03:26:36;;;;;;;14.17;10.97;;;7.70;71.60;;;;;;5092841;28;20978;-72
2021/03/03 03:29:04;;;;;;;17.00;10.17;;;7.70;72.00;;;;;;5093587;28;20479;-72
2021/03/03 03:31:30;;;;;;;13.80;10.90;;;7.70;72.00;;;;;;5093547;28;20440;-73
2021/03/03 03:33:58;;;;;;;15.90;11.30;;;7.70;72.30;;;;;;5093500;28;20474;-73
2021/03/03 03:36:26;;;;;;;14.90;11.40;;;7.70;72.40;;;;;;5093458;28;20467;-73
2021/03/03 03:38:52;;;;;;;16.17;9.70;;;7.70;72.50;;;;;;5093543;28;20448;-73
2021/03/03 03:41:19;;;;;;;18.03;12.20;;;7.70;72.60;;;;;;5093508;28;20450;-73
2021/03/03 03:43:47;;;;;;;16.70;12.17;;;7.70;72.70;;;;;;5093356;28;20706;-73
2021/03/03 03:46:14;;;;;;;18.90;12.00;;;7.70;72.90;;;;;;5093392;28;20463;-73
2021/03/03 03:48:41;;;;;;;19.37;12.27;;;7.70;72.90;;;;;;5093488;28;20432;-73
2021/03/03 03:51:07;;;;;;;13.70;11.10;;;7.70;73.20;;;;;;5093353;28;20447;-72
2021/03/03 03:53:35;;;;;;;20.83;11.83;;;7.60;73.20;;;;;;5093421;28;20445;-73
2021/03/03 03:56:01;;;;;;;17.23;12.47;;;7.60;73.20;;;;;;5092935;28;21061;-73
2021/03/03 03:58:28;;;;;;;21.63;12.40;;;7.60;73.20;;;;;;5093321;28;20451;-72
2021/03/03 04:00:54;;;;;;;16.83;12.30;;;7.60;73.20;;;;;;5093298;28;20455;-73
2021/03/03 04:03:20;;;;;;;16.53;12.73;;;7.70;73.50;;;;;;5093257;28;20482;-73
2021/03/03 04:05:46;;;;;;;15.60;11.33;;;7.60;73.50;;;;;;5092844;28;20997;-73
2021/03/03 04:08:13;;;;;;;15.17;11.13;;;7.60;73.30;;;;;;5093301;28;20448;-73
2021/03/03 04:10:40;;;;;;;14.93;11.50;;;7.60;73.50;;;;;;5093252;28;20571;-73
2021/03/03 04:13:06;;;;;;;14.60;10.70;;;7.60;73.50;;;;;;5093409;28;20439;-73
2021/03/03 04:15:32;;;;;;;14.07;10.33;;;7.60;73.70;;;;;;5093355;28;20472;-72
2021/03/03 04:17:59;;;;;;;14.50;10.63;;;7.60;73.50;;;;;;5093303;28;20443;-72
2021/03/03 04:20:25;;;;;;;18.80;11.90;;;7.50;73.00;;;;;;5093213;28;20457;-73
2021/03/03 04:22:51;;;;;;;17.63;10.87;;;7.50;73.50;;;;;;5093018;28;20806;-73
2021/03/03 04:25:18;;;;;;;16.80;10.70;;;7.40;73.50;;;;;;5093028;28;20472;-73
2021/03/03 04:27:45;;;;;;;18.37;10.97;;;7.40;74.50;;;;;;5092712;28;20444;-73
2021/03/03 04:30:14;;;;;;;14.97;9.63;;;7.40;74.40;;;;;;5093030;28;20447;-73
2021/03/03 04:32:40;;;;;;;13.97;10.63;;;7.40;74.60;;;;;;5092951;28;20460;-72
2021/03/03 04:35:08;;;;;;;16.33;10.70;;;7.40;74.70;;;;;;5093108;28;20464;-72
2021/03/03 04:37:35;;;;;;;13.70;9.93;;;7.40;74.80;;;;;;5093128;28;20473;-73
2021/03/03 04:40:01;;;;;;;13.83;9.30;;;7.40;74.70;;;;;;5096504;28;20545;-73
2021/03/03 04:42:27;;;;;;;15.13;9.83;;;7.30;74.60;;;;;;5096472;28;20448;-73
2021/03/03 04:44:54;;;;;;;15.10;10.40;;;7.30;74.90;;;;;;5096331;28;20479;-73
2021/03/03 04:47:20;;;;;;;17.60;10.53;;;7.30;75.00;;;;;;5096420;28;20440;-73
2021/03/03 04:49:46;;;;;;;16.77;10.40;;;7.30;75.20;;;;;;5096386;28;20452;-72
2021/03/03 04:52:13;;;;;;;11.27;9.67;;;7.30;75.60;;;;;;5095990;28;20946;-73
2021/03/03 04:54:39;;;;;;;10.50;8.50;;;7.30;75.80;;;;;;5096199;28;20446;-72
2021/03/03 04:57:06;;;;;;;18.90;11.00;;;7.30;75.90;;;;;;5095883;28;20843;-73
2021/03/03 04:59:32;;;;;;;17.50;10.50;;;7.30;75.80;;;;;;5095845;28;20435;-73
2021/03/03 05:01:59;;;;;;;13.60;9.80;;;7.30;75.90;;;;;;5096096;28;20447;-73
2021/03/03 05:04:26;;;;;;;14.50;10.90;;;7.30;76.00;;;;;;5096054;28;20471;-73
2021/03/03 05:06:52;;;;;;;16.07;10.70;;;7.30;76.00;;;;;;5095509;28;20479;-72
2021/03/03 05:09:18;;;;;;;14.53;10.47;;;7.30;76.10;;;;;;5095947;28;20444;-73
2021/03/03 05:11:44;;;;;;;14.77;11.17;;;7.40;76.20;;;;;;5095967;28;20444;-73
2021/03/03 05:14:11;;;;;;;19.93;11.43;;;7.40;76.20;;;;;;5095856;28;20491;-72
2021/03/03 05:16:37;;;;;;;18.07;11.00;;;7.40;76.40;;;;;;5095837;28;20574;-73
2021/03/03 05:19:04;;;;;;;14.10;10.97;;;7.40;76.50;;;;;;5095819;28;20447;-72
2021/03/03 05:21:31;;;;;;;15.47;11.80;;;7.40;76.60;;;;;;5095753;28;20447;-73
2021/03/03 05:23:57;;;;;;;18.73;12.10;;;7.40;76.70;;;;;;5095620;28;20479;-73
2021/03/03 05:26:23;;;;;;;17.10;12.63;;;7.50;77.10;;;;;;5095643;28;20464;-73
2021/03/03 05:28:49;;;;;;;18.33;11.53;;;7.50;77.10;;;;;;5095651;28;20448;-73
2021/03/03 05:31:16;;;;;;;19.90;11.77;;;7.50;77.30;;;;;;5095700;28;20443;-73
2021/03/03 05:33:43;;;;;;;16.20;11.87;;;7.50;77.50;;;;;;5095615;28;20432;-72
2021/03/03 05:36:11;;;;;;;15.07;11.60;;;7.50;77.70;;;;;;5096357;28;20469;-73
2021/03/03 05:38:39;;;;;;;17.27;12.50;;;7.50;77.90;;;;;;5095804;28;20431;-73
2021/03/03 05:41:06;;;;;;;16.93;12.93;;;7.50;77.90;;;;;;5095094;28;20446;-73
2021/03/03 05:43:33;;;;;;;18.63;11.83;;;7.50;77.90;;;;;;5095287;28;20992;-73
2021/03/03 05:46:01;;;;;;;18.70;12.03;;;7.50;77.90;;;;;;5095247;28;20475;-73
2021/03/03 05:48:31;;;;;;;17.43;12.90;;;7.50;77.80;;;;;;5094969;28;20439;-73
2021/03/03 05:50:59;;;;;;;20.00;12.67;;;7.50;77.70;;;;;;5094920;28;20775;-72
2021/03/03 05:53:27;;;;;;;17.50;12.17;;;7.50;77.70;;;;;;5095124;28;20435;-72
2021/03/03 05:55:55;;;;;;;16.60;11.27;;;7.50;77.60;;;;;;5095084;28;20832;-72
2021/03/03 05:58:23;;;;;;;13.87;10.67;;;7.50;77.60;;;;;;5095155;28;20430;-72
2021/03/03 06:00:49;;;;;;;16.60;13.20;;;7.40;77.60;;;;;;5094925;28;20451;-72
2021/03/03 06:03:17;;;;;;;20.10;13.07;;;7.40;77.60;;;;;;5095398;28;20439;-73
2021/03/03 06:05:46;;;;;;;21.00;12.40;;;7.40;77.90;;;;;;5094629;28;20511;-73
2021/03/03 06:08:13;;;;;;;23.83;12.40;;;7.40;77.70;;;;;;5094914;28;20490;-72
2021/03/03 06:10:41;;;;;;;18.33;11.83;;;7.40;78.00;;;;;;5094870;28;20428;-72
2021/03/03 06:13:07;;;;;;;18.20;12.70;;;7.30;78.00;;;;;;5094763;28;20424;-72
2021/03/03 06:15:33;;;;;;;16.60;11.53;;;7.30;78.10;;;;;;5094205;28;20493;-72
2021/03/03 06:18:00;;;;;;;12.93;10.30;;;7.30;77.90;;;;;;5094669;28;20474;-72
2021/03/03 06:20:26;;;;;;;15.40;10.70;;;7.20;77.60;;;;;;5094619;28;20430;-72
2021/03/03 06:22:52;;;;;;;22.60;11.30;;;7.20;77.80;;;;;;5094674;28;20839;-72
2021/03/03 06:25:20;;;;;;;11.50;9.40;;;7.20;77.90;;;;;;5094124;28;20989;-74
2021/03/03 06:27:47;;;;;;;18.30;9.50;;;7.20;78.00;;;;;;5094459;28;20475;-73
2021/03/03 06:30:16;;;;;;;10.77;8.73;;;7.10;77.80;;;;;;5094511;28;20452;-73
2021/03/03 06:32:56;;;;;;;14.37;9.53;;;7.10;77.80;;;;;;5094401;28;20812;-73
2021/03/03 06:35:36;;;;;;;14.37;9.27;;;7.10;77.90;;;;;;5094300;28;20795;-73
2021/03/03 06:38:04;;;;;;;14.70;10.07;;;7.20;78.20;;;;;;5094390;28;20428;-73
2021/03/03 06:40:30;;;;;;;16.27;11.70;;;7.20;78.40;;;;;;5094184;28;20448;-73
2021/03/03 06:42:57;;;;;;;17.23;11.87;;;7.20;78.50;;;;;;5094131;28;20812;-73
2021/03/03 06:45:28;;;;;;;22.43;14.00;;;7.20;78.60;;;;;;5094897;28;20835;-72
2021/03/03 06:47:55;;;;;;;22.57;13.67;;;7.20;78.90;;;;;;5093887;28;20444;-73
2021/03/03 06:50:31;;;;;;;20.00;13.83;;;7.20;79.30;;;;;;5094106;28;20984;-72
2021/03/03 06:52:57;;;;;;;23.07;14.60;;;7.30;79.50;;;;;;5093817;28;20836;-72
2021/03/03 06:55:23;;;;;;;19.50;14.17;;;7.30;79.30;;;;;;5094243;28;20464;-72
2021/03/03 06:57:50;;;;;;;20.03;14.17;;;7.30;79.50;;;;;;5094001;28;20512;-73
2021/03/03 07:00:41;;;;;;;24.37;15.60;;;7.30;79.70;;;;;;5093445;28;20623;-73
2021/03/03 07:03:26;;;;;;;23.73;15.50;;;7.40;80.00;;;;;;5093505;28;20795;-73
2021/03/03 07:05:52;;;;;;;21.17;14.47;;;7.40;80.30;;;;;;5093733;28;20522;-73
2021/03/03 07:08:18;;;;;;;17.70;13.90;;;7.50;80.50;;;;;;5093675;28;20444;-73
2021/03/03 07:10:45;;;;;;;26.80;13.80;;;7.50;80.40;;;;;;5093746;28;20458;-72
2021/03/03 07:13:11;;;;;;;20.53;14.30;;;7.50;80.20;;;;;;5093740;28;20440;-73
2021/03/03 07:15:39;;;;;;;18.77;14.50;;;7.60;80.40;;;;;;5093661;28;20478;-73
2021/03/03 07:18:30;;;;;;;27.67;13.27;;;7.60;80.40;;;;;;5093719;28;20446;-73
2021/03/03 07:20:57;;;;;;;20.80;13.07;;;7.70;80.50;;;;;;5093776;28;20443;-72
2021/03/03 07:23:41;;;;;;;17.30;12.90;;;7.70;80.30;;;;;;5093633;28;20900;-72
2021/03/03 07:26:09;;;;;;;19.33;13.33;;;7.80;80.20;;;;;;5093581;28;20816;-73
2021/03/03 07:28:36;;;;;;;21.17;13.77;;;7.80;80.10;;;;;;5093649;28;20420;-73
2021/03/03 07:31:03;;;;;;;21.77;15.03;;;7.80;80.40;;;;;;5093583;28;20439;-73
2021/03/03 07:33:30;;;;;;;18.87;13.20;;;7.90;80.60;;;;;;5093695;28;20451;-73
2021/03/03 07:35:58;;;;;;;20.37;14.40;;;7.90;80.50;;;;;;5094062;28;20470;-73
2021/03/03 07:38:25;;;;;;;25.00;14.80;;;8.00;80.60;;;;;;5093504;28;20447;-73
2021/03/03 07:40:52;;;;;;;17.77;14.43;;;8.10;80.90;;;;;;5093563;28;20453;-73
2021/03/03 07:43:24;;;;;;;24.63;14.90;;;8.20;81.70;;;;;;5093332;28;20432;-72
2021/03/03 07:45:51;;;;;;;22.43;14.33;;;8.20;80.90;;;;;;5093588;28;20472;-73
2021/03/03 07:48:20;;;;;;;20.57;13.43;;;8.30;81.00;;;;;;5093618;28;20440;-70
2021/03/03 07:50:46;;;;;;;25.13;15.93;;;8.40;81.30;;;;;;5093555;28;20429;-70
2021/03/03 07:53:14;;;;;;;28.90;15.93;;;8.50;81.50;;;;;;5093371;28;20447;-70
2021/03/03 07:55:42;;;;;;;21.30;15.03;;;8.60;81.60;;;;;;5093359;28;20478;-70
2021/03/03 07:58:09;;;;;;;29.50;17.27;;;8.70;80.80;;;;;;5093265;28;20447;-70
2021/03/03 08:00:37;;;;;;;23.70;17.37;;;8.80;80.60;;;;;;5093368;28;20430;-70
2021/03/03 08:03:04;;;;;;;20.57;14.87;;;8.90;81.50;;;;;;5093388;28;20430;-71
2021/03/03 08:05:34;;;;;;;19.83;13.80;;;9.00;80.30;;;;;;5092629;28;21019;-70
2021/03/03 08:08:22;;;;;;;26.50;18.07;;;9.10;79.20;;;;;;5093202;28;20449;-70
2021/03/03 08:10:50;;;;;;;15.87;12.90;;;9.20;78.10;;;;;;5093222;28;20910;-70
2021/03/03 08:13:17;;;;;;;19.87;14.23;;;9.30;77.50;;;;;;5096438;28;20428;-70
2021/03/03 08:15:45;;;;;;;25.83;17.07;;;9.50;76.70;;;;;;5097123;28;20463;-69
2021/03/03 08:18:29;;;;;;;26.60;16.10;;;9.60;76.00;;;;;;5097367;28;20465;-72
2021/03/03 08:20:57;;;;;;;21.80;15.83;;;9.70;75.30;;;;;;5097574;28;20493;-73
2021/03/03 08:23:43;;;;;;;23.63;16.30;;;9.80;74.80;;;;;;5096889;28;20446;-74
2021/03/03 08:26:35;;;;;;;26.73;19.57;;;10.00;73.10;;;;;;5096564;28;20503;-74
2021/03/03 08:29:26;;;;;;;22.40;16.83;;;10.10;72.70;;;;;;5096817;28;20511;-73
2021/03/03 08:31:53;;;;;;;32.70;20.57;;;10.20;72.20;;;;;;5096654;28;20929;-72
2021/03/03 08:34:19;;;;;;;19.23;13.90;;;10.30;71.80;;;;;;5096820;28;20428;-72
2021/03/03 08:36:55;;;;;;;24.30;16.57;;;10.40;71.70;;;;;;5096701;28;20517;-72
2021/03/03 08:39:26;;;;;;;23.63;16.50;;;10.50;71.40;;;;;;5096363;28;20518;-72
2021/03/03 08:41:53;;;;;;;26.87;18.47;;;10.70;71.10;;;;;;5096546;28;20443;-72
2021/03/03 08:44:19;;;;;;;22.57;16.40;;;10.80;70.60;;;;;;5096397;28;20529;-72
2021/03/03 08:46:47;;;;;;;27.10;18.17;;;10.90;70.60;;;;;;5097143;28;21024;-74
2021/03/03 08:49:27;;;;;;;28.77;19.33;;;11.10;69.70;;;;;;5096484;28;20474;-72
2021/03/03 08:52:11;;;;;;;25.77;17.00;;;11.20;69.70;;;;;;5096129;28;20431;-72
2021/03/03 08:54:47;;;;;;;29.90;19.07;;;11.30;69.30;;;;;;5096336;28;20424;-72
2021/03/03 08:57:37;;;;;;;28.33;19.23;;;11.40;69.30;;;;;;5096131;28;20423;-74
2021/03/03 09:00:07;;;;;;;25.37;18.10;;;11.50;68.70;;;;;;5096289;28;20436;-72
2021/03/03 09:02:41;;;;;;;28.03;19.10;;;11.60;68.30;;;;;;5095950;28;20919;-72
2021/03/03 09:05:10;;;;;;;25.30;16.93;;;11.70;68.40;;;;;;5095748;28;20606;-72
2021/03/03 09:07:36;;;;;;;21.50;17.33;;;11.80;68.10;;;;;;5096078;28;20498;-72
2021/03/03 09:10:05;;;;;;;21.27;17.73;;;11.90;67.60;;;;;;5096055;28;20549;-72
2021/03/03 09:12:33;;;;;;;26.10;18.17;;;12.00;67.50;;;;;;5095935;28;20446;-73
2021/03/03 09:15:03;;;;;;;26.90;17.87;;;12.10;67.30;;;;;;5095832;28;20444;-73
2021/03/03 09:17:31;;;;;;;24.53;16.80;;;12.20;66.50;;;;;;5095959;28;20424;-74
2021/03/03 09:19:59;;;;;;;29.87;17.50;;;12.40;66.40;;;;;;5095801;28;20455;-73
2021/03/03 09:22:27;;;;;;;26.67;18.47;;;12.50;66.10;;;;;;5095749;28;20444;-73
2021/03/03 09:24:56;;;;;;;31.30;16.67;;;12.60;65.60;;;;;;5094853;28;20511;-73
2021/03/03 09:27:24;;;;;;;35.00;18.50;;;12.70;65.30;;;;;;5095788;28;20432;-73
2021/03/03 09:29:51;;;;;;;27.07;16.30;;;12.80;64.50;;;;;;5095705;28;20495;-73
2021/03/03 09:32:21;;;;;;;26.47;17.40;;;12.90;62.40;;;;;;5095568;28;20425;-73
2021/03/03 09:34:49;;;;;;;32.30;16.53;;;13.10;61.80;;;;;;5096297;28;20472;-73
2021/03/03 09:37:16;;;;;;;27.10;16.10;;;13.20;60.80;;;;;;5095497;28;20440;-73
2021/03/03 09:39:42;;;;;;;25.47;15.80;;;13.30;60.30;;;;;;5095504;28;20442;-73
2021/03/03 09:42:10;;;;;;;25.77;16.77;;;13.30;59.70;;;;;;5095144;28;20448;-73
2021/03/03 09:44:46;;;;;;;27.53;16.07;;;13.40;59.60;;;;;;5095338;28;20513;-73
2021/03/03 09:47:22;;;;;;;26.60;17.10;;;13.60;59.60;;;;;;5095598;28;20439;-72
2021/03/03 09:49:48;;;;;;;24.33;16.30;;;13.60;59.20;;;;;;5095238;28;20431;-72
2021/03/03 09:52:14;;;;;;;28.97;16.97;;;13.80;58.80;;;;;;5095334;28;20428;-72
2021/03/03 09:54:41;;;;;;;34.30;17.00;;;13.90;57.90;;;;;;5095202;28;20444;-72
2021/03/03 09:57:09;;;;;;;28.30;17.63;;;14.10;58.70;;;;;;5095070;28;20461;-72
2021/03/03 09:59:38;;;;;;;25.60;17.30;;;14.20;58.70;;;;;;5095073;28;20444;-72
2021/03/03 10:02:06;;;;;;;37.73;17.90;;;14.40;58.00;;;;;;5095046;28;20444;-72
2021/03/03 10:04:37;;;;;;;23.50;15.47;;;14.50;57.50;;;;;;5094550;28;20460;-74
2021/03/03 10:07:10;;;;;;;32.83;16.13;;;14.60;56.30;;;;;;5094550;28;20810;-73
2021/03/03 10:09:41;;;;;;;27.20;17.50;;;14.80;56.30;;;;;;5094827;28;20925;-74
2021/03/03 10:12:09;;;;;;;26.63;17.77;;;14.90;56.10;;;;;;5094844;28;20832;-74
2021/03/03 10:14:48;;;;;;;26.23;17.30;;;15.00;55.40;;;;;;5094719;28;20444;-73
2021/03/03 10:17:14;;;;;;;30.97;17.93;;;15.20;54.90;;;;;;5094332;28;20424;-73
2021/03/03 10:19:43;;;;;;;38.63;19.70;;;15.50;54.80;;;;;;5094325;28;20960;-74
2021/03/03 10:22:10;;;;;;;38.87;19.50;;;15.70;54.30;;;;;;5094598;28;20442;-74
2021/03/03 10:24:36;;;;;;;30.70;18.70;;;16.00;53.20;;;;;;5094412;28;20476;-74
2021/03/03 10:27:02;;;;;;;34.07;19.30;;;16.20;53.30;;;;;;5094084;28;20840;-74
2021/03/03 10:29:33;;;;;;;28.07;18.73;;;16.40;52.40;;;;;;5094410;28;20448;-74
2021/03/03 10:32:07;;;;;;;34.50;18.30;;;16.60;51.60;;;;;;5094332;28;20478;-73
2021/03/03 10:34:33;;;;;;;36.80;20.67;;;16.70;50.80;;;;;;5094337;28;20440;-73
2021/03/03 10:37:00;;;;;;;34.30;20.80;;;16.90;50.70;;;;;;5093305;28;20818;-73
2021/03/03 10:39:28;;;;;;;37.80;20.97;;;17.10;50.20;;;;;;5094168;28;20443;-73
2021/03/03 10:42:00;;;;;;;34.00;19.67;;;17.30;50.20;;;;;;5094188;28;20448;-73
2021/03/03 10:44:37;;;;;;;36.20;22.40;;;17.50;49.80;;;;;;5094141;28;20466;-73
2021/03/03 10:47:04;;;;;;;31.10;22.00;;;17.80;49.60;;;;;;5093769;28;21004;-73
2021/03/03 10:49:31;;;;;;;32.37;21.57;;;18.00;49.80;;;;;;5094096;28;20443;-73
2021/03/03 10:51:57;;;;;;;34.93;23.80;;;18.00;48.60;;;;;;5094001;28;20443;-73
2021/03/03 10:54:31;;;;;;;41.00;23.93;;;17.90;48.20;;;;;;5094011;28;20446;-73
2021/03/03 10:57:05;;;;;;;32.83;21.53;;;17.80;48.90;;;;;;5094710;28;20960;-73
2021/03/03 10:59:32;;;;;;;29.67;21.03;;;18.00;49.10;;;;;;5093960;28;20526;-73
2021/03/03 11:02:00;;;;;;;32.33;21.90;;;18.30;48.70;;;;;;5093913;28;20432;-73
2021/03/03 11:04:38;;;;;;;35.10;22.93;;;18.70;47.80;;;;;;5093836;28;20554;-73
2021/03/03 11:07:05;;;;;;;28.70;22.40;;;19.00;46.20;;;;;;5093856;28;20456;-73
2021/03/03 11:09:32;;;;;;;32.90;22.07;;;19.40;46.90;;;;;;5093467;28;20786;-74
2021/03/03 11:11:58;;;;;;;38.73;22.60;;;19.90;46.60;;;;;;5093689;28;20482;-74
2021/03/03 11:14:27;;;;;;;31.63;22.77;;;20.30;44.20;;;;;;5093712;28;20431;-74
2021/03/03 11:16:54;;;;;;;29.07;22.33;;;20.70;43.50;;;;;;5093862;28;20485;-74
2021/03/03 11:19:20;;;;;;;33.33;21.90;;;21.10;42.50;;;;;;5093661;28;20440;-73
2021/03/03 11:21:47;;;;;;;28.30;21.00;;;21.60;41.80;;;;;;5093593;28;20492;-72
2021/03/03 11:24:14;;;;;;;28.33;21.80;;;22.10;41.20;;;;;;5093699;28;20472;-74
2021/03/03 11:26:42;;;;;;;32.20;20.80;;;22.60;40.20;;;;;;5093521;28;20460;-74
2021/03/03 11:29:09;;;;;;;33.77;23.87;;;22.90;38.40;;;;;;5093513;28;20453;-75
2021/03/03 11:31:38;;;;;;;39.20;24.77;;;23.30;37.90;;;;;;5093304;28;20889;-74
2021/03/03 11:34:04;;;;;;;35.37;23.60;;;23.70;37.00;;;;;;5093525;28;20448;-74
2021/03/03 11:36:31;;;;;;;45.47;23.07;;;23.80;36.20;;;;;;5093117;28;21030;-74
2021/03/03 11:38:57;;;;;;;36.40;25.10;;;23.80;36.00;;;;;;5093144;28;20451;-74
2021/03/03 11:41:23;;;;;;;30.27;23.00;;;23.90;36.20;;;;;;5093472;28;20447;-74
2021/03/03 11:43:51;;;;;;;36.87;24.73;;;23.90;36.50;;;;;;5093373;28;20439;-74
2021/03/03 11:46:17;;;;;;;46.63;25.60;;;23.70;36.00;;;;;;5093017;28;20981;-73
2021/03/03 11:48:44;;;;;;;36.77;25.20;;;23.80;36.30;;;;;;5097301;28;20447;-73
2021/03/03 11:51:10;;;;;;;32.50;23.37;;;23.60;36.10;;;;;;5097477;28;20451;-73
2021/03/03 11:53:36;;;;;;;34.00;24.50;;;23.60;35.70;;;;;;5097181;28;20943;-74
2021/03/03 11:56:03;;;;;;;34.83;24.73;;;23.40;35.80;;;;;;5097304;28;20864;-73
2021/03/03 11:58:29;;;;;;;38.97;24.20;;;23.20;36.00;;;;;;5097313;28;20447;-74
2021/03/03 12:00:56;;;;;;;33.27;24.77;;;22.80;36.30;;;;;;5097348;28;20477;-74
2021/03/03 12:03:23;;;;;;;30.73;24.00;;;22.70;37.20;;;;;;5097306;28;20428;-74
2021/03/03 12:05:49;;;;;;;38.30;26.20;;;22.50;36.40;;;;;;5096835;28;20498;-74
2021/03/03 12:08:15;;;;;;;39.27;25.03;;;22.10;37.50;;;;;;5097230;28;20455;-74
2021/03/03 12:10:41;;;;;;;34.60;23.23;;;22.00;38.90;;;;;;5097098;28;20470;-74
2021/03/03 12:13:07;;;;;;;36.43;26.33;;;22.30;38.70;;;;;;5096733;28;20789;-74
2021/03/03 12:15:34;;;;;;;34.87;24.77;;;22.60;38.00;;;;;;5097150;28;20467;-74
2021/03/03 12:18:01;;;;;;;32.30;24.10;;;23.10;36.80;;;;;;5096968;28;20431;-74
2021/03/03 12:20:28;;;;;;;38.50;24.93;;;23.50;36.00;;;;;;5096938;28;20439;-74
2021/03/03 12:22:55;;;;;;;31.87;24.00;;;23.60;35.10;;;;;;5096936;28;20432;-74
2021/03/03 12:25:21;;;;;;;32.37;24.60;;;23.70;36.10;;;;;;5096595;28;20521;-74
2021/03/03 12:27:48;;;;;;;35.27;24.97;;;24.20;36.10;;;;;;5096760;28;20444;-74
2021/03/03 12:30:15;;;;;;;28.80;23.30;;;24.00;34.50;;;;;;5097037;28;20450;-74
2021/03/03 12:32:41;;;;;;;33.33;23.53;;;24.20;34.20;;;;;;5096699;28;20424;-74
2021/03/03 12:35:10;;;;;;;40.80;24.57;;;24.20;34.50;;;;;;5096827;28;20462;-74
2021/03/03 12:37:36;;;;;;;36.50;23.37;;;24.30;33.90;;;;;;5096581;28;20420;-74
2021/03/03 12:40:03;;;;;;;31.70;22.80;;;24.50;33.30;;;;;;5096268;28;20906;-74